Time;durP1;ratioP1;P1;durP2;ratioP2;P2;SDS_P1;SDS_P2;PMS_P1;PMS_P2;Temp;Humidity;BMP_temperature;BMP_pressure;BME280_temperature;BME280_humidity;BME280_pressure;Samples;Min_cycle;Max_cycle;Signal;HPM_P1;HPM_P2
2024/02/07 00:01:51;;;;;;;18.45;6.72;;;11.40;73.30;;;;;;5092600;28;20875;-72
2024/02/07 00:04:16;;;;;;;16.90;6.90;;;11.40;73.40;;;;;;5090767;28;20412;-72
2024/02/07 00:06:42;;;;;;;13.75;6.40;;;11.40;74.70;;;;;;5092498;28;20879;-72
2024/02/07 00:09:08;;;;;;;19.45;6.47;;;11.40;74.90;;;;;;5092521;28;20374;-72
2024/02/07 00:11:34;;;;;;;16.75;7.05;;;11.40;76.50;;;;;;5092241;28;20390;-72
2024/02/07 00:14:00;;;;;;;16.42;6.43;;;11.30;77.60;;;;;;5092221;28;20775;-71
2024/02/07 00:16:26;;;;;;;16.10;6.60;;;11.30;78.60;;;;;;5092164;28;20405;-73
2024/02/07 00:18:51;;;;;;;17.02;6.47;;;11.30;77.80;;;;;;5092514;28;20374;-72
2024/02/07 00:21:17;;;;;;;17.70;6.50;;;11.30;79.60;;;;;;5092052;28;20448;-72
2024/02/07 00:23:42;;;;;;;17.97;6.87;;;11.30;79.50;;;;;;5092071;28;20658;-72
2024/02/07 00:26:08;;;;;;;14.03;6.70;;;11.30;80.40;;;;;;5092185;28;20429;-71
2024/02/07 00:28:33;;;;;;;19.37;7.53;;;11.30;79.40;;;;;;5092409;28;20526;-72
2024/02/07 00:30:59;;;;;;;23.40;6.90;;;11.40;80.40;;;;;;5093086;28;20455;-72
2024/02/07 00:33:25;;;;;;;18.65;7.15;;;11.40;80.00;;;;;;5090700;28;20386;-72
2024/02/07 00:35:50;;;;;;;14.80;6.45;;;11.30;80.90;;;;;;5092054;28;20417;-73
2024/02/07 00:38:17;;;;;;;13.00;6.78;;;11.30;81.60;;;;;;5092557;28;20729;-71
2024/02/07 00:40:43;;;;;;;14.25;7.30;;;11.30;80.60;;;;;;5090592;28;20389;-73
2024/02/07 00:43:08;;;;;;;15.75;6.95;;;11.30;83.00;;;;;;5091750;28;20390;-70
2024/02/07 00:45:34;;;;;;;15.03;6.93;;;11.30;82.10;;;;;;5091809;28;20427;-72
2024/02/07 00:48:00;;;;;;;19.88;7.60;;;11.30;80.70;;;;;;5091987;28;20374;-72
2024/02/07 00:50:25;;;;;;;14.43;6.80;;;11.40;80.90;;;;;;5091714;28;20384;-72
2024/02/07 00:52:51;;;;;;;14.33;6.63;;;11.40;79.60;;;;;;5091144;28;20370;-72
2024/02/07 00:55:16;;;;;;;14.10;6.50;;;11.40;80.90;;;;;;5089895;28;20898;-72
2024/02/07 00:57:42;;;;;;;10.20;5.70;;;11.50;80.50;;;;;;5090096;28;20478;-73
2024/02/07 01:00:13;;;;;;;11.77;6.37;;;11.50;79.60;;;;;;5091346;28;20374;-73
2024/02/07 01:02:40;;;;;;;15.10;6.22;;;11.50;79.60;;;;;;5090726;28;20374;-73
2024/02/07 01:05:08;;;;;;;15.23;6.40;;;11.50;80.00;;;;;;5091430;28;20401;-73
2024/02/07 01:07:34;;;;;;;20.73;7.13;;;11.50;80.20;;;;;;5091525;28;20876;-73
2024/02/07 01:09:59;;;;;;;14.43;6.00;;;11.40;80.90;;;;;;5091170;28;20378;-72
2024/02/07 01:12:25;;;;;;;12.60;5.43;;;11.50;80.50;;;;;;5090917;28;20477;-72
2024/02/07 01:14:52;;;;;;;13.05;6.35;;;11.50;81.80;;;;;;5091232;28;20857;-72
2024/02/07 01:17:18;;;;;;;13.73;6.55;;;11.40;83.20;;;;;;5091675;28;20394;-73
2024/02/07 01:19:43;;;;;;;11.77;5.80;;;11.40;82.50;;;;;;5091342;28;20431;-73
2024/02/07 01:22:10;;;;;;;16.40;6.23;;;11.40;83.30;;;;;;5090948;28;20390;-73
2024/02/07 01:24:35;;;;;;;18.90;6.30;;;11.40;84.20;;;;;;5091126;28;20394;-73
2024/02/07 01:27:02;;;;;;;12.27;6.10;;;11.40;83.60;;;;;;5091069;28;20527;-72
2024/02/07 01:29:27;;;;;;;11.25;6.40;;;11.40;83.50;;;;;;5091157;28;20435;-73
2024/02/07 01:31:54;;;;;;;15.33;6.40;;;11.40;85.00;;;;;;5091359;28;20455;-73
2024/02/07 01:34:20;;;;;;;11.27;6.13;;;11.30;85.10;;;;;;5090867;28;20392;-73
2024/02/07 01:36:45;;;;;;;19.70;6.60;;;11.40;84.70;;;;;;5091274;28;20374;-73
2024/02/07 01:39:11;;;;;;;15.63;6.47;;;11.30;85.70;;;;;;5091032;28;20935;-72
2024/02/07 01:44:21;;;;;;;17.17;6.20;;;11.30;86.10;;;;;;5091083;28;20413;-72
2024/02/07 01:46:47;;;;;;;11.40;6.80;;;11.30;85.80;;;;;;5091118;28;20378;-72
2024/02/07 01:49:14;;;;;;;14.63;6.07;;;11.30;85.50;;;;;;5090878;28;20722;-72
2024/02/07 01:51:41;;;;;;;18.73;7.07;;;11.30;86.30;;;;;;5090926;28;20390;-72
2024/02/07 01:54:06;;;;;;;11.82;6.38;;;11.30;87.20;;;;;;5090607;28;20425;-72
2024/02/07 01:56:33;;;;;;;15.50;6.97;;;11.30;87.60;;;;;;5093685;28;20408;-72
2024/02/07 01:58:59;;;;;;;15.80;6.90;;;11.30;87.20;;;;;;5094848;28;20385;-71
2024/02/07 02:01:26;;;;;;;16.27;7.03;;;11.30;87.30;;;;;;5094499;28;20382;-72
2024/02/07 02:03:52;;;;;;;17.98;6.53;;;11.30;88.50;;;;;;5094237;28;20749;-71
2024/02/07 02:06:18;;;;;;;16.63;6.85;;;11.30;87.50;;;;;;5093097;28;20421;-71
2024/02/07 02:08:43;;;;;;;18.58;6.60;;;11.30;88.40;;;;;;5094266;28;20429;-72
2024/02/07 02:11:11;;;;;;;18.40;7.30;;;11.30;88.50;;;;;;5094274;28;20423;-71
2024/02/07 02:13:37;;;;;;;21.52;6.65;;;11.20;89.00;;;;;;5094106;28;20385;-71
2024/02/07 02:16:03;;;;;;;13.32;5.93;;;11.20;89.90;;;;;;5073962;22;20507;-74
2024/02/07 02:18:30;;;;;;;16.73;6.78;;;11.20;87.70;;;;;;5014764;28;20575;-74
2024/02/07 02:20:58;;;;;;;16.42;7.18;;;11.20;89.10;;;;;;5014258;28;20384;-74
2024/02/07 02:23:51;;;;;;;16.23;6.63;;;11.20;88.40;;;;;;5013903;28;20445;-73
2024/02/07 02:27:01;;;;;;;20.87;7.13;;;11.20;88.30;;;;;;5014335;28;20548;-74
2024/02/07 02:29:37;;;;;;;14.65;6.45;;;11.20;89.10;;;;;;5012838;28;20471;-74
2024/02/07 02:32:07;;;;;;;16.42;6.70;;;11.20;88.40;;;;;;5012580;28;20832;-74
2024/02/07 02:34:34;;;;;;;9.88;5.88;;;11.20;88.80;;;;;;5013724;28;20444;-72
2024/02/07 02:37:00;;;;;;;24.50;7.38;;;11.20;89.60;;;;;;5013693;28;20942;-74
2024/02/07 02:39:28;;;;;;;14.03;6.60;;;11.20;90.40;;;;;;5013599;28;20396;-73
2024/02/07 02:41:54;;;;;;;17.55;6.43;;;11.10;91.80;;;;;;5013968;28;20385;-73
2024/02/07 02:44:20;;;;;;;16.10;6.60;;;11.10;90.60;;;;;;5012563;28;20504;-74
2024/02/07 02:46:46;;;;;;;19.25;7.20;;;11.20;89.30;;;;;;5019831;28;20420;-72
2024/02/07 02:49:11;;;;;;;17.20;6.50;;;11.20;90.50;;;;;;5013476;28;20385;-72
2024/02/07 02:51:37;;;;;;;17.60;6.30;;;11.20;90.60;;;;;;5013507;28;20388;-73
2024/02/07 02:54:02;;;;;;;19.70;6.22;;;11.10;89.50;;;;;;5013284;28;20389;-74
2024/02/07 02:56:31;;;;;;;18.48;7.18;;;11.10;90.40;;;;;;5013573;28;20472;-74
2024/02/07 02:58:57;;;;;;;17.65;6.40;;;11.10;90.60;;;;;;5013428;28;20527;-74
2024/02/07 03:01:23;;;;;;;13.77;5.80;;;11.10;89.90;;;;;;5013369;28;20471;-74
2024/02/07 03:03:55;;;;;;;15.90;6.93;;;11.10;90.30;;;;;;5012949;28;20446;-74
2024/02/07 03:06:32;;;;;;;17.98;5.90;;;11.10;90.40;;;;;;5012841;28;20389;-74
2024/02/07 03:09:07;;;;;;;16.90;6.15;;;11.10;89.90;;;;;;5013331;28;20381;-74
2024/02/07 03:11:33;;;;;;;16.45;6.22;;;11.10;91.10;;;;;;5013178;28;20396;-74
2024/02/07 03:14:05;;;;;;;14.32;6.30;;;11.10;89.70;;;;;;5012927;28;20385;-74
2024/02/07 03:16:31;;;;;;;13.75;6.60;;;11.10;91.60;;;;;;5012820;28;20414;-73
2024/02/07 03:18:58;;;;;;;19.33;6.30;;;11.10;91.30;;;;;;5011726;28;20955;-75
2024/02/07 03:21:26;;;;;;;12.82;6.10;;;11.20;90.00;;;;;;5013023;28;20388;-74
2024/02/07 03:23:52;;;;;;;12.52;6.10;;;11.10;89.90;;;;;;5011286;28;20411;-73
2024/02/07 03:26:19;;;;;;;13.52;5.65;;;11.10;89.80;;;;;;5012917;28;20408;-74
2024/02/07 03:28:44;;;;;;;12.93;5.70;;;11.10;90.40;;;;;;5012706;28;20412;-74
2024/02/07 03:31:10;;;;;;;17.30;5.60;;;11.10;89.60;;;;;;5011494;28;20423;-73
2024/02/07 03:33:36;;;;;;;12.93;4.88;;;11.10;89.10;;;;;;5012308;28;20385;-74
2024/02/07 03:36:01;;;;;;;13.37;5.13;;;11.10;88.60;;;;;;5012746;28;20377;-73
2024/02/07 03:38:27;;;;;;;14.10;5.30;;;11.20;88.50;;;;;;5013305;28;20417;-74
2024/02/07 03:40:53;;;;;;;9.73;4.50;;;11.20;88.80;;;;;;5012708;28;20886;-75
2024/02/07 03:43:18;;;;;;;12.00;5.33;;;11.20;87.50;;;;;;5012525;28;20471;-74
2024/02/07 03:45:44;;;;;;;9.13;4.97;;;11.20;88.50;;;;;;5012469;28;20826;-75
2024/02/07 03:48:13;;;;;;;11.43;5.30;;;11.20;87.50;;;;;;5012885;28;20425;-74
2024/02/07 03:50:40;;;;;;;6.82;4.80;;;11.10;88.40;;;;;;5012520;28;20376;-73
2024/02/07 03:53:07;;;;;;;12.38;5.43;;;11.10;89.80;;;;;;5012381;28;20508;-73
2024/02/07 03:55:35;;;;;;;8.05;4.50;;;11.10;89.40;;;;;;5012477;28;20393;-75
2024/02/07 03:58:01;;;;;;;11.10;5.40;;;11.20;88.80;;;;;;5012412;28;20411;-74
2024/02/07 04:00:27;;;;;;;7.53;3.88;;;11.10;88.90;;;;;;5012382;28;20423;-74
2024/02/07 04:02:52;;;;;;;14.20;4.70;;;11.20;86.80;;;;;;5012351;28;20468;-74
2024/02/07 04:05:18;;;;;;;6.70;2.87;;;11.20;87.50;;;;;;5011821;28;20748;-74
2024/02/07 04:07:44;;;;;;;9.98;4.22;;;9.90;94.30;;;;;;5012216;28;20384;-73
2024/02/07 04:10:11;;;;;;;13.30;5.90;;;8.80;99.90;;;;;;5012085;28;20388;-72
2024/02/07 05:15:42;;;;;;;4.43;1.88;;;5.80;99.90;;;;;;5010385;28;20909;-74
2024/02/07 05:18:08;;;;;;;5.97;2.30;;;5.80;99.90;;;;;;5010937;28;20471;-72
2024/02/07 05:20:33;;;;;;;5.17;2.13;;;5.70;99.90;;;;;;5010826;28;20404;-73
2024/02/07 05:22:59;;;;;;;8.73;2.63;;;5.60;99.90;;;;;;5025794;28;20413;-72
2024/02/07 05:25:25;;;;;;;8.10;2.43;;;5.50;99.90;;;;;;5010391;28;20416;-73
2024/02/07 05:27:51;;;;;;;4.07;2.30;;;5.50;99.90;;;;;;5010510;28;20466;-74
2024/02/07 05:30:16;;;;;;;5.20;2.30;;;5.60;99.90;;;;;;5009765;28;20387;-73
2024/02/07 05:32:42;;;;;;;5.65;2.50;;;5.60;99.90;;;;;;5010418;28;20416;-72
2024/02/07 05:35:08;;;;;;;5.93;2.40;;;5.50;99.90;;;;;;5010613;28;20392;-74
2024/02/07 05:37:35;;;;;;;9.73;3.10;;;5.60;99.90;;;;;;5010772;28;20415;-71
2024/02/07 05:40:01;;;;;;;4.25;2.70;;;5.60;99.90;;;;;;5010442;28;20419;-72
2024/02/07 05:42:27;;;;;;;6.28;3.00;;;5.60;99.90;;;;;;5010415;28;20384;-74
2024/02/07 05:44:52;;;;;;;5.75;3.10;;;5.60;99.90;;;;;;5010418;28;20918;-74
2024/02/07 05:47:18;;;;;;;6.47;2.85;;;5.60;99.90;;;;;;5010564;28;20396;-72
2024/02/07 05:49:44;;;;;;;8.13;3.30;;;5.60;99.90;;;;;;5010955;28;20384;-72
2024/02/07 05:52:10;;;;;;;5.37;3.10;;;5.50;99.90;;;;;;5010379;28;20388;-72
2024/02/07 05:54:36;;;;;;;8.70;2.80;;;5.60;99.90;;;;;;5010972;28;20385;-73
2024/02/07 05:57:02;;;;;;;7.72;3.03;;;5.60;99.90;;;;;;5010264;28;20431;-73
2024/02/07 05:59:27;;;;;;;4.72;2.28;;;5.30;99.90;;;;;;5010659;28;20419;-73
2024/02/07 06:01:53;;;;;;;5.70;2.35;;;5.30;99.90;;;;;;5010653;28;20403;-73
2024/02/07 06:04:19;;;;;;;9.35;2.90;;;5.30;99.90;;;;;;5010095;28;20408;-72
2024/02/07 06:06:49;;;;;;;6.97;2.03;;;5.30;99.90;;;;;;5010104;28;20439;-74
2024/02/07 06:09:15;;;;;;;8.38;2.05;;;5.30;99.90;;;;;;5010224;28;20496;-74
2024/02/07 06:11:44;;;;;;;7.18;2.60;;;5.20;99.90;;;;;;5010474;28;20401;-73
2024/02/07 06:14:11;;;;;;;8.40;2.20;;;5.00;99.90;;;;;;5010134;28;20462;-73
2024/02/07 06:16:39;;;;;;;12.45;2.40;;;5.10;99.90;;;;;;5011776;28;20488;-73
2024/02/07 06:19:04;;;;;;;4.75;1.70;;;5.00;99.90;;;;;;5010525;28;20408;-74
2024/02/07 06:21:30;;;;;;;10.30;2.00;;;5.00;99.90;;;;;;5009494;28;20388;-73
2024/02/07 06:23:56;;;;;;;7.83;2.00;;;4.90;99.90;;;;;;5010116;28;20393;-73
2024/02/07 06:26:22;;;;;;;9.45;2.20;;;4.90;99.90;;;;;;5010174;28;20842;-74
2024/02/07 06:28:48;;;;;;;8.33;2.10;;;5.00;99.90;;;;;;5010934;28;20429;-74
2024/02/07 06:31:14;;;;;;;7.38;1.90;;;5.00;99.90;;;;;;5014854;28;20392;-73
2024/02/07 06:33:39;;;;;;;12.35;2.40;;;5.00;99.90;;;;;;5010063;28;20460;-73
2024/02/07 06:36:05;;;;;;;6.53;1.50;;;5.00;99.90;;;;;;5010417;28;20480;-73
2024/02/07 06:38:32;;;;;;;10.02;2.10;;;4.90;99.90;;;;;;5010413;28;20389;-73
2024/02/07 06:40:58;;;;;;;6.38;1.60;;;4.90;99.90;;;;;;5010391;28;20397;-72
2024/02/07 06:43:23;;;;;;;6.90;1.80;;;4.90;99.90;;;;;;5013636;28;20423;-73
2024/02/07 06:45:49;;;;;;;6.13;1.80;;;4.90;99.90;;;;;;5013319;28;20413;-73
2024/02/07 06:48:15;;;;;;;8.85;1.75;;;4.80;99.90;;;;;;5014474;28;20380;-73
2024/02/07 06:50:40;;;;;;;8.20;1.90;;;4.80;99.90;;;;;;5013951;28;20388;-73
2024/02/07 06:53:06;;;;;;;5.05;1.60;;;4.80;99.90;;;;;;5013649;28;20392;-73
2024/02/07 06:55:31;;;;;;;8.18;2.30;;;4.80;99.90;;;;;;5013803;28;20420;-72
2024/02/07 06:57:57;;;;;;;6.07;2.10;;;4.70;99.90;;;;;;5012992;28;20389;-73
2024/02/07 07:00:22;;;;;;;6.93;2.00;;;4.80;99.90;;;;;;5013999;28;20411;-73
2024/02/07 07:02:48;;;;;;;6.67;1.60;;;4.80;99.90;;;;;;5013741;28;20388;-73
2024/02/07 07:05:14;;;;;;;5.47;1.40;;;4.70;99.90;;;;;;5013240;28;20834;-74
2024/02/07 07:07:39;;;;;;;7.70;2.00;;;4.70;99.90;;;;;;5014761;28;20388;-74
2024/02/07 07:10:05;;;;;;;3.45;1.40;;;4.60;99.90;;;;;;5016599;28;20787;-73
2024/02/07 07:12:31;;;;;;;6.78;1.83;;;4.60;99.90;;;;;;5013870;28;20424;-72
2024/02/07 07:14:56;;;;;;;4.80;1.50;;;4.60;99.90;;;;;;5013436;28;20415;-73
2024/02/07 07:17:22;;;;;;;5.97;2.10;;;4.60;99.90;;;;;;5013460;28;20463;-73
2024/02/07 07:19:48;;;;;;;5.85;1.70;;;4.60;99.90;;;;;;5013631;28;20389;-74
2024/02/07 07:22:13;;;;;;;8.60;2.38;;;4.70;99.90;;;;;;5012976;28;20747;-73
2024/02/07 07:24:39;;;;;;;7.25;2.50;;;4.70;99.90;;;;;;5012912;28;20867;-74
2024/02/07 07:27:05;;;;;;;6.78;2.38;;;4.70;99.90;;;;;;5013135;28;20405;-72
2024/02/07 07:29:30;;;;;;;7.30;2.30;;;4.80;99.90;;;;;;5014303;28;20475;-75
2024/02/07 07:31:57;;;;;;;6.53;2.67;;;4.90;99.90;;;;;;5015107;28;20839;-72
2024/02/07 07:34:23;;;;;;;8.48;2.50;;;4.80;99.90;;;;;;5012339;28;20389;-73
2024/02/07 07:36:51;;;;;;;6.95;2.40;;;4.80;99.90;;;;;;5012939;28;20393;-74
2024/02/07 07:39:17;;;;;;;9.55;2.85;;;4.80;99.90;;;;;;5012910;28;20480;-74
2024/02/07 07:41:42;;;;;;;5.03;2.40;;;4.90;99.90;;;;;;5012800;28;20475;-73
2024/02/07 07:44:08;;;;;;;8.13;2.55;;;4.90;99.90;;;;;;5011908;28;20385;-73
2024/02/07 07:46:33;;;;;;;9.18;2.80;;;4.90;99.90;;;;;;5012679;28;20385;-73
2024/02/07 07:48:59;;;;;;;6.30;3.30;;;4.90;99.90;;;;;;5012849;28;20384;-74
2024/02/07 07:51:26;;;;;;;10.73;4.90;;;4.90;99.90;;;;;;5012523;28;20456;-74
2024/02/07 07:53:52;;;;;;;7.80;3.75;;;4.90;99.90;;;;;;5011569;28;20665;-74
2024/02/07 07:56:18;;;;;;;9.10;3.00;;;4.80;99.90;;;;;;5013064;28;20435;-75
2024/02/07 07:58:48;;;;;;;6.72;3.00;;;5.00;99.90;;;;;;5012404;28;20427;-74
2024/02/07 08:01:15;;;;;;;7.85;3.30;;;5.00;99.90;;;;;;5012334;28;20385;-74
2024/02/07 08:03:40;;;;;;;5.80;3.20;;;5.00;99.90;;;;;;5011899;28;20860;-73
2024/02/07 08:06:09;;;;;;;7.10;2.90;;;5.00;99.90;;;;;;5010051;28;20859;-72
2024/02/07 08:08:35;;;;;;;9.00;3.30;;;5.10;99.90;;;;;;5012381;28;20381;-74
2024/02/07 08:11:01;;;;;;;8.27;3.58;;;5.00;99.90;;;;;;5012015;28;20463;-74
2024/02/07 08:13:27;;;;;;;10.90;4.18;;;5.00;99.90;;;;;;5011800;28;20389;-74
2024/02/07 08:15:53;;;;;;;7.03;4.03;;;4.80;99.90;;;;;;5031544;22;20442;-72
2024/02/07 08:18:18;;;;;;;11.70;4.82;;;4.80;99.90;;;;;;5051617;28;20746;-72
2024/02/07 08:20:44;;;;;;;8.85;4.70;;;4.90;99.90;;;;;;5050611;28;20366;-71
2024/02/07 08:23:09;;;;;;;10.82;4.50;;;5.00;99.90;;;;;;5052187;28;20400;-71
2024/02/07 08:25:35;;;;;;;10.20;4.75;;;4.90;99.90;;;;;;5052705;28;20409;-72
2024/02/07 08:28:00;;;;;;;10.55;4.50;;;4.90;99.90;;;;;;5053164;28;20883;-72
2024/02/07 08:30:26;;;;;;;10.10;5.10;;;4.90;99.90;;;;;;5052725;28;20822;-70
2024/02/07 08:32:52;;;;;;;13.02;4.90;;;5.10;99.90;;;;;;5052419;28;20751;-73
2024/02/07 08:35:17;;;;;;;7.18;4.65;;;5.20;99.90;;;;;;5051511;28;20381;-71
2024/02/07 08:37:44;;;;;;;14.55;5.40;;;5.30;99.90;;;;;;5051294;28;20432;-72
2024/02/07 08:40:09;;;;;;;14.13;4.90;;;5.20;99.90;;;;;;5049944;28;20393;-72
2024/02/07 08:42:37;;;;;;;9.80;5.35;;;5.20;99.90;;;;;;5051490;28;20408;-71
2024/02/07 08:45:03;;;;;;;11.93;4.78;;;5.20;99.90;;;;;;5049396;28;20412;-72
2024/02/07 08:47:29;;;;;;;13.77;5.80;;;5.10;99.90;;;;;;5051472;28;20863;-72
2024/02/07 08:49:55;;;;;;;9.68;5.25;;;5.30;99.90;;;;;;5050758;28;20385;-71
2024/02/07 08:52:20;;;;;;;9.25;4.50;;;5.30;99.90;;;;;;5051035;28;20409;-72
2024/02/07 08:54:46;;;;;;;8.05;4.25;;;5.30;99.90;;;;;;5051141;28;20416;-71
2024/02/07 08:57:12;;;;;;;6.73;4.17;;;5.30;99.90;;;;;;5051418;28;20913;-71
2024/02/07 08:59:37;;;;;;;10.73;3.33;;;5.40;99.90;;;;;;5051235;28;20919;-71
2024/02/07 09:02:04;;;;;;;9.30;4.17;;;5.30;99.90;;;;;;5049676;28;20400;-71
2024/02/07 09:04:30;;;;;;;9.82;4.00;;;5.30;99.90;;;;;;5050188;28;20402;-72
2024/02/07 09:06:55;;;;;;;7.68;4.30;;;5.30;99.90;;;;;;5049081;28;20390;-72
2024/02/07 09:09:21;;;;;;;9.60;4.38;;;5.70;99.90;;;;;;5050044;28;20449;-71
2024/02/07 09:11:47;;;;;;;6.85;4.28;;;5.70;99.90;;;;;;5052150;28;20411;-70
2024/02/07 09:14:12;;;;;;;11.07;4.82;;;5.70;99.90;;;;;;5055561;28;20378;-72
2024/02/07 09:16:38;;;;;;;10.40;3.95;;;5.60;99.90;;;;;;5055267;28;20428;-71
2024/02/07 09:19:04;;;;;;;11.87;3.90;;;5.60;99.90;;;;;;5052871;28;20389;-69
2024/02/07 09:21:29;;;;;;;9.30;4.37;;;5.80;99.90;;;;;;5051159;28;20381;-70
2024/02/07 09:23:56;;;;;;;9.03;3.70;;;6.00;99.90;;;;;;5051250;28;20385;-70
2024/02/07 09:26:22;;;;;;;8.75;3.70;;;5.90;99.90;;;;;;5051080;28;20401;-70
2024/02/07 09:28:47;;;;;;;10.32;4.38;;;5.80;99.90;;;;;;5050802;28;20477;-72
2024/02/07 09:31:13;;;;;;;8.95;3.97;;;6.00;99.10;;;;;;5050416;28;20396;-69
2024/02/07 09:33:39;;;;;;;10.90;3.83;;;6.20;92.60;;;;;;5048795;28;20381;-71
2024/02/07 09:36:05;;;;;;;8.67;4.10;;;6.00;97.90;;;;;;5050601;28;20447;-71
2024/02/07 09:38:31;;;;;;;7.50;3.50;;;6.10;95.00;;;;;;5050479;28;20421;-70
2024/02/07 09:40:58;;;;;;;10.68;4.50;;;6.10;95.00;;;;;;5032261;28;20389;-69
2024/02/07 09:43:24;;;;;;;10.80;3.80;;;6.20;98.70;;;;;;5048937;28;20404;-71
2024/02/07 09:45:59;;;;;;;11.10;4.18;;;6.20;92.30;;;;;;5050166;28;20409;-71
2024/02/07 09:48:26;;;;;;;11.43;4.53;;;6.00;99.90;;;;;;5050462;28;20447;-71
2024/02/07 09:50:59;;;;;;;13.27;4.72;;;5.80;99.90;;;;;;5050238;28;20377;-72
2024/02/07 09:53:27;;;;;;;13.45;5.00;;;5.70;99.90;;;;;;5050455;28;20922;-70
2024/02/07 09:55:54;;;;;;;12.83;4.93;;;5.80;99.90;;;;;;5050109;28;20753;-71
2024/02/07 09:58:20;;;;;;;10.30;4.70;;;5.80;99.90;;;;;;5051058;28;20454;-71
2024/02/07 10:00:49;;;;;;;15.55;6.05;;;5.70;99.90;;;;;;5050460;28;20880;-70
2024/02/07 10:03:17;;;;;;;10.80;5.22;;;5.90;99.90;;;;;;5050837;28;20424;-71
2024/02/07 10:05:50;;;;;;;17.60;6.22;;;5.90;99.90;;;;;;5050436;28;20408;-70
2024/02/07 10:08:16;;;;;;;13.18;5.35;;;5.90;99.90;;;;;;5050089;28;20678;-71
2024/02/07 10:10:49;;;;;;;12.53;5.73;;;5.80;99.90;;;;;;5048672;28;20413;-70
2024/02/07 10:13:16;;;;;;;13.60;6.70;;;5.90;99.90;;;;;;5050020;28;20381;-71
2024/02/07 10:15:43;;;;;;;19.13;5.88;;;6.10;99.90;;;;;;5050032;28;20408;-72
2024/02/07 10:18:09;;;;;;;10.25;4.90;;;6.10;99.90;;;;;;5054420;28;20393;-72
2024/02/07 10:20:35;;;;;;;12.40;5.38;;;6.10;99.90;;;;;;5054256;28;20766;-70
2024/02/07 10:23:04;;;;;;;11.15;4.53;;;6.00;99.90;;;;;;5053930;28;20423;-71
2024/02/07 10:25:30;;;;;;;11.83;4.70;;;6.10;99.90;;;;;;5053381;28;20401;-70
2024/02/07 10:28:06;;;;;;;12.85;5.20;;;6.00;99.90;;;;;;5053811;28;20378;-69
2024/02/07 10:30:32;;;;;;;15.15;5.50;;;6.10;99.90;;;;;;5053357;28;20385;-71
2024/02/07 10:32:58;;;;;;;11.60;5.50;;;6.10;99.90;;;;;;5053759;28;20382;-71
2024/02/07 10:35:24;;;;;;;15.68;6.00;;;6.20;99.90;;;;;;5053875;28;20389;-72
2024/02/07 10:37:53;;;;;;;15.53;6.03;;;6.30;99.90;;;;;;5053802;28;20464;-71
2024/02/07 10:40:20;;;;;;;12.35;5.97;;;6.30;99.90;;;;;;5053867;28;20373;-71
2024/02/07 10:42:53;;;;;;;16.33;6.65;;;6.70;99.90;;;;;;5053737;28;20385;-70
2024/02/07 10:45:18;;;;;;;14.77;6.85;;;6.70;97.40;;;;;;5053414;28;20774;-72
2024/02/07 10:47:44;;;;;;;21.90;7.50;;;6.90;90.20;;;;;;5053476;28;20393;-71
2024/02/07 10:50:10;;;;;;;19.63;7.80;;;7.00;84.80;;;;;;5053447;28;20388;-72
2024/02/07 10:52:38;;;;;;;21.08;8.48;;;6.90;87.00;;;;;;5053595;28;20382;-70
2024/02/07 10:55:06;;;;;;;19.17;7.15;;;7.20;75.20;;;;;;5053258;28;20401;-72
2024/02/07 10:57:37;;;;;;;20.25;7.95;;;7.10;78.00;;;;;;5052096;28;20396;-71
2024/02/07 11:00:05;;;;;;;18.92;7.05;;;7.10;79.20;;;;;;5053560;28;20543;-72
2024/02/07 11:02:32;;;;;;;21.65;8.15;;;7.10;70.90;;;;;;5054271;28;20377;-71
2024/02/07 11:04:59;;;;;;;19.52;8.00;;;7.10;73.80;;;;;;5053100;28;20497;-71
2024/02/07 11:07:25;;;;;;;22.15;8.65;;;6.90;73.90;;;;;;5053290;28;20385;-70
2024/02/07 11:09:52;;;;;;;24.65;10.00;;;6.80;73.10;;;;;;5053232;28;20449;-71
2024/02/07 11:12:18;;;;;;;26.60;10.80;;;6.80;75.40;;;;;;5053103;28;20468;-71
2024/02/07 11:14:45;;;;;;;32.40;11.90;;;6.90;73.30;;;;;;5052777;28;20499;-70
2024/02/07 11:17:15;;;;;;;29.77;10.98;;;6.80;81.80;;;;;;5052546;28;20474;-70
2024/02/07 11:19:44;;;;;;;32.67;12.45;;;6.60;92.00;;;;;;5052941;28;20834;-71
2024/02/07 11:22:25;;;;;;;28.42;13.40;;;6.80;93.60;;;;;;5051058;28;20391;-71
2024/02/07 11:24:54;;;;;;;35.15;13.70;;;6.80;89.40;;;;;;5052660;28;20428;-71
2024/02/07 11:27:20;;;;;;;34.97;16.00;;;6.70;92.00;;;;;;5052393;28;20795;-71
2024/02/07 11:29:45;;;;;;;36.13;14.90;;;6.70;92.50;;;;;;5052087;28;20401;-70
2024/02/07 11:32:11;;;;;;;32.25;14.60;;;6.80;93.40;;;;;;5052396;28;20373;-71
2024/02/07 11:34:41;;;;;;;29.38;13.50;;;7.00;91.30;;;;;;5052359;28;20389;-71
2024/02/07 11:37:10;;;;;;;37.00;14.07;;;7.10;90.90;;;;;;5052542;28;20378;-71
2024/02/07 11:39:41;;;;;;;29.92;11.80;;;7.10;87.60;;;;;;5052257;28;20435;-72
2024/02/07 11:42:13;;;;;;;30.42;12.10;;;7.30;80.30;;;;;;5052550;28;20476;-71
2024/02/07 11:44:52;;;;;;;29.57;12.10;;;7.40;80.70;;;;;;5052615;28;20401;-69
2024/02/07 11:47:29;;;;;;;34.50;12.45;;;7.40;82.90;;;;;;5052490;28;20405;-70
2024/02/07 11:49:57;;;;;;;31.63;12.88;;;7.30;82.80;;;;;;5052239;28;20461;-69
2024/02/07 11:52:31;;;;;;;34.97;13.52;;;7.30;85.00;;;;;;5052612;28;20460;-72
2024/02/07 11:55:16;;;;;;;23.17;10.70;;;7.20;85.80;;;;;;5055760;28;20433;-72
2024/02/07 11:57:48;;;;;;;28.55;11.50;;;7.30;87.20;;;;;;5052476;28;20385;-71
2024/02/07 12:00:18;;;;;;;22.50;9.45;;;7.30;86.70;;;;;;5053611;28;20436;-71
2024/02/07 12:02:48;;;;;;;22.52;9.85;;;7.50;81.60;;;;;;5055798;28;20962;-72
2024/02/07 12:05:15;;;;;;;24.35;10.50;;;7.30;82.10;;;;;;5054798;28;20409;-70
2024/02/07 12:07:41;;;;;;;21.67;10.35;;;7.20;85.90;;;;;;5057571;28;20398;-71
2024/02/07 12:10:11;;;;;;;22.20;10.70;;;7.10;88.80;;;;;;5065438;28;20393;-70
2024/02/07 12:12:37;;;;;;;21.83;10.40;;;7.00;90.20;;;;;;5064430;28;20392;-72
2024/02/07 12:15:04;;;;;;;18.92;10.57;;;7.00;91.20;;;;;;5064074;28;20385;-71
2024/02/07 12:17:31;;;;;;;23.60;10.57;;;6.90;93.40;;;;;;5061240;28;20393;-71
2024/02/07 12:20:00;;;;;;;20.13;8.13;;;6.90;92.70;;;;;;5056275;28;20390;-70
2024/02/07 12:22:27;;;;;;;15.40;7.32;;;6.90;82.90;;;;;;5055097;28;20397;-72
2024/02/07 12:24:53;;;;;;;17.02;7.43;;;6.80;78.90;;;;;;5052634;28;20397;-73
2024/02/07 12:27:19;;;;;;;20.20;8.18;;;6.90;71.10;;;;;;5051818;28;20483;-72
2024/02/07 12:29:55;;;;;;;16.98;7.30;;;6.90;73.80;;;;;;5051967;28;20405;-70
2024/02/07 12:32:21;;;;;;;18.93;7.47;;;6.70;75.50;;;;;;5050176;28;20776;-71
2024/02/07 12:34:47;;;;;;;16.45;7.78;;;6.70;75.20;;;;;;5051104;28;20385;-70
2024/02/07 12:37:16;;;;;;;16.08;8.10;;;6.60;80.10;;;;;;5051088;28;20470;-71
2024/02/07 12:39:46;;;;;;;17.83;8.07;;;6.60;81.40;;;;;;5049640;28;20775;-71
2024/02/07 12:42:16;;;;;;;12.00;7.60;;;6.70;80.90;;;;;;5051348;28;20412;-71
2024/02/07 12:44:42;;;;;;;16.93;7.90;;;6.70;82.00;;;;;;5052127;28;20806;-71
2024/02/07 12:47:09;;;;;;;18.73;7.78;;;6.70;81.20;;;;;;5050821;28;20389;-71
2024/02/07 12:49:35;;;;;;;18.02;6.88;;;6.60;81.50;;;;;;5051725;28;20882;-70
2024/02/07 12:52:01;;;;;;;13.32;6.93;;;6.60;78.40;;;;;;5049514;28;20474;-72
2024/02/07 12:54:27;;;;;;;16.83;7.13;;;6.80;75.60;;;;;;5051422;28;20409;-72
2024/02/07 12:56:54;;;;;;;15.63;6.07;;;6.80;72.40;;;;;;5050861;28;20461;-71
2024/02/07 12:59:35;;;;;;;11.10;6.50;;;6.90;67.90;;;;;;5050819;28;20852;-72
2024/02/07 13:02:03;;;;;;;14.70;7.45;;;7.00;68.30;;;;;;5049830;28;20400;-71
2024/02/07 13:04:30;;;;;;;11.68;6.20;;;6.80;73.10;;;;;;5050855;28;20392;-72
2024/02/07 13:07:00;;;;;;;16.23;6.90;;;6.60;75.90;;;;;;5050681;28;20393;-70
2024/02/07 13:09:26;;;;;;;12.82;6.60;;;6.70;73.70;;;;;;5051094;28;20382;-72
2024/02/07 13:11:53;;;;;;;17.75;6.80;;;6.80;69.10;;;;;;5050315;28;20468;-71
2024/02/07 13:14:18;;;;;;;15.68;6.00;;;6.60;71.70;;;;;;5050326;28;20485;-71
2024/02/07 13:16:45;;;;;;;14.00;6.40;;;6.70;71.00;;;;;;5052569;28;20828;-70
2024/02/07 13:19:14;;;;;;;13.60;6.75;;;6.60;75.60;;;;;;5049332;28;20421;-71
2024/02/07 13:21:42;;;;;;;16.65;7.47;;;6.70;75.10;;;;;;5050679;28;20391;-72
2024/02/07 13:24:17;;;;;;;16.58;6.70;;;6.80;77.40;;;;;;5050406;28;20465;-70
2024/02/07 13:26:51;;;;;;;14.68;7.32;;;6.90;76.00;;;;;;5050650;28;20468;-72
2024/02/07 13:29:18;;;;;;;16.05;6.80;;;7.10;74.50;;;;;;5050779;28;20864;-71
2024/02/07 13:31:43;;;;;;;10.93;6.50;;;7.40;64.80;;;;;;5050560;28;20381;-71
2024/02/07 13:34:11;;;;;;;15.60;7.20;;;7.30;61.70;;;;;;5050305;28;20948;-71
2024/02/07 13:36:37;;;;;;;17.55;6.82;;;7.30;67.90;;;;;;5050330;28;20416;-72
2024/02/07 13:39:03;;;;;;;16.15;6.70;;;7.40;63.90;;;;;;5049347;28;20417;-71
2024/02/07 13:41:31;;;;;;;15.90;6.05;;;7.40;62.20;;;;;;5050937;28;20377;-72
2024/02/07 13:43:57;;;;;;;10.90;6.55;;;7.40;62.40;;;;;;5050217;28;20423;-72
2024/02/07 13:46:22;;;;;;;13.83;6.70;;;7.60;62.90;;;;;;5050275;28;20420;-72
2024/02/07 13:48:48;;;;;;;12.00;6.15;;;7.60;62.00;;;;;;5050410;28;20381;-72
2024/02/07 13:51:13;;;;;;;10.20;6.10;;;7.50;63.20;;;;;;5050814;28;20475;-71